sensor_id;sensor_type;location;lat;lon;timestamp;pressure;altitude;pressure_sealevel;temperature;humidity
74722;BME280;63470;49.826;6.740;2023-10-19T00:01:28;98269.75;;;12.78;60.55
74722;BME280;63470;49.826;6.740;2023-10-19T00:03:58;98268.87;;;12.77;60.59
74722;BME280;63470;49.826;6.740;2023-10-19T00:06:29;98269.34;;;12.76;60.58
74722;BME280;63470;49.826;6.740;2023-10-19T00:08:55;98265.55;;;12.77;60.63
74722;BME280;63470;49.826;6.740;2023-10-19T00:11:30;98263.64;;;12.77;60.67
74722;BME280;63470;49.826;6.740;2023-10-19T00:14:01;98264.92;;;12.79;60.71
74722;BME280;63470;49.826;6.740;2023-10-19T00:16:36;98264.53;;;12.83;60.71
74722;BME280;63470;49.826;6.740;2023-10-19T00:19:01;98263.25;;;12.87;60.74
74722;BME280;63470;49.826;6.740;2023-10-19T00:21:37;98269.74;;;12.89;60.73
74722;BME280;63470;49.826;6.740;2023-10-19T00:24:11;98269.09;;;12.93;60.77
74722;BME280;63470;49.826;6.740;2023-10-19T00:26:33;98266.62;;;12.97;60.66
74722;BME280;63470;49.826;6.740;2023-10-19T00:29:12;98273.19;;;12.99;60.66
74722;BME280;63470;49.826;6.740;2023-10-19T00:31:37;98273.47;;;12.99;60.69
74722;BME280;63470;49.826;6.740;2023-10-19T00:34:04;98272.05;;;12.98;60.70
74722;BME280;63470;49.826;6.740;2023-10-19T00:36:36;98269.84;;;12.97;60.72
74722;BME280;63470;49.826;6.740;2023-10-19T00:39:13;98268.95;;;12.96;60.79
74722;BME280;63470;49.826;6.740;2023-10-19T00:41:34;98261.66;;;12.96;60.83
74722;BME280;63470;49.826;6.740;2023-10-19T00:44:14;98269.59;;;12.98;60.94
74722;BME280;63470;49.826;6.740;2023-10-19T00:46:48;98263.14;;;13.01;60.93
74722;BME280;63470;49.826;6.740;2023-10-19T00:49:07;98263.38;;;13.02;60.90
74722;BME280;63470;49.826;6.740;2023-10-19T00:51:51;98259.73;;;13.03;60.89
74722;BME280;63470;49.826;6.740;2023-10-19T00:54:16;98252.96;;;13.03;60.88
74722;BME280;63470;49.826;6.740;2023-10-19T00:56:35;98256.31;;;13.05;60.88
74722;BME280;63470;49.826;6.740;2023-10-19T00:59:25;98252.08;;;13.06;60.92
74722;BME280;63470;49.826;6.740;2023-10-19T01:01:52;98250.40;;;13.08;60.93
74722;BME280;63470;49.826;6.740;2023-10-19T01:04:08;98250.40;;;13.12;60.93
74722;BME280;63470;49.826;6.740;2023-10-19T01:06:39;98244.46;;;13.16;60.93
74722;BME280;63470;49.826;6.740;2023-10-19T01:09:13;98242.42;;;13.20;60.89
74722;BME280;63470;49.826;6.740;2023-10-19T01:11:40;98242.64;;;13.20;60.86
74722;BME280;63470;49.826;6.740;2023-10-19T01:14:20;98241.22;;;13.21;60.88
74722;BME280;63470;49.826;6.740;2023-10-19T01:16:41;98238.08;;;13.21;60.92
74722;BME280;63470;49.826;6.740;2023-10-19T01:19:09;98236.36;;;13.21;60.94
74722;BME280;63470;49.826;6.740;2023-10-19T01:21:50;98239.19;;;13.24;60.94
74722;BME280;63470;49.826;6.740;2023-10-19T01:24:20;98238.06;;;13.27;60.92
74722;BME280;63470;49.826;6.740;2023-10-19T01:26:40;98239.09;;;13.30;60.83
74722;BME280;63470;49.826;6.740;2023-10-19T01:29:31;98235.27;;;13.30;60.82
74722;BME280;63470;49.826;6.740;2023-10-19T01:32:04;98237.55;;;13.30;60.78
74722;BME280;63470;49.826;6.740;2023-10-19T01:34:14;98234.30;;;13.32;60.75
74722;BME280;63470;49.826;6.740;2023-10-19T01:36:43;98235.60;;;13.35;60.76
74722;BME280;63470;49.826;6.740;2023-10-19T01:39:14;98228.12;;;13.40;60.73
74722;BME280;63470;49.826;6.740;2023-10-19T01:41:45;98228.09;;;13.42;60.71
74722;BME280;63470;49.826;6.740;2023-10-19T01:44:16;98230.41;;;13.38;60.68
74722;BME280;63470;49.826;6.740;2023-10-19T01:46:46;98230.47;;;13.29;60.76
74722;BME280;63470;49.826;6.740;2023-10-19T01:49:24;98227.28;;;13.18;60.90
74722;BME280;63470;49.826;6.740;2023-10-19T01:51:48;98231.35;;;13.08;61.05
74722;BME280;63470;49.826;6.740;2023-10-19T01:54:24;98235.82;;;13.04;61.13
74722;BME280;63470;49.826;6.740;2023-10-19T01:56:49;98233.78;;;13.00;61.17
74722;BME280;63470;49.826;6.740;2023-10-19T01:59:20;98235.88;;;12.98;61.25
74722;BME280;63470;49.826;6.740;2023-10-19T02:01:54;98233.00;;;12.98;61.22
74722;BME280;63470;49.826;6.740;2023-10-19T02:04:21;98229.66;;;12.99;61.21
74722;BME280;63470;49.826;6.740;2023-10-19T02:06:52;98223.98;;;13.03;61.18
74722;BME280;63470;49.826;6.740;2023-10-19T02:09:34;98219.43;;;13.07;61.15
74722;BME280;63470;49.826;6.740;2023-10-19T02:11:55;98213.58;;;13.12;61.10
74722;BME280;63470;49.826;6.740;2023-10-19T02:14:20;98211.59;;;13.17;61.02
74722;BME280;63470;49.826;6.740;2023-10-19T02:17:01;98208.47;;;13.20;61.00
74722;BME280;63470;49.826;6.740;2023-10-19T02:19:25;98203.36;;;13.17;61.03
74722;BME280;63470;49.826;6.740;2023-10-19T02:21:56;98199.73;;;13.13;61.06
74722;BME280;63470;49.826;6.740;2023-10-19T02:24:25;98202.89;;;13.11;61.13
74722;BME280;63470;49.826;6.740;2023-10-19T02:26:55;98199.67;;;13.12;61.18
74722;BME280;63470;49.826;6.740;2023-10-19T02:29:26;98195.67;;;13.16;61.15
74722;BME280;63470;49.826;6.740;2023-10-19T02:31:55;98192.78;;;13.22;61.10
74722;BME280;63470;49.826;6.740;2023-10-19T02:34:23;98193.65;;;13.28;61.08
74722;BME280;63470;49.826;6.740;2023-10-19T02:36:59;98188.85;;;13.37;61.00
74722;BME280;63470;49.826;6.740;2023-10-19T02:39:31;98187.70;;;13.45;60.90
74722;BME280;63470;49.826;6.740;2023-10-19T02:41:56;98178.38;;;13.51;60.82
74722;BME280;63470;49.826;6.740;2023-10-19T02:44:28;98183.25;;;13.56;60.78
74722;BME280;63470;49.826;6.740;2023-10-19T02:47:00;98178.09;;;13.59;60.78
74722;BME280;63470;49.826;6.740;2023-10-19T02:49:29;98176.88;;;13.64;60.77
74722;BME280;63470;49.826;6.740;2023-10-19T02:52:05;98172.94;;;13.69;60.73
74722;BME280;63470;49.826;6.740;2023-10-19T02:54:36;98166.31;;;13.74;60.70
74722;BME280;63470;49.826;6.740;2023-10-19T02:57:02;98165.98;;;13.80;60.66
74722;BME280;63470;49.826;6.740;2023-10-19T02:59:29;98164.06;;;13.87;60.64
74722;BME280;63470;49.826;6.740;2023-10-19T03:02:21;98157.41;;;13.93;60.59
74722;BME280;63470;49.826;6.740;2023-10-19T03:04:29;98153.76;;;13.98;60.51
74722;BME280;63470;49.826;6.740;2023-10-19T03:07:00;98148.25;;;14.00;60.45
74722;BME280;63470;49.826;6.740;2023-10-19T03:09:31;98147.23;;;13.95;60.46
74722;BME280;63470;49.826;6.740;2023-10-19T03:12:00;98151.88;;;13.90;60.64
74722;BME280;63470;49.826;6.740;2023-10-19T03:14:34;98149.33;;;13.87;60.75
74722;BME280;63470;49.826;6.740;2023-10-19T03:17:03;98144.48;;;13.85;60.79
74722;BME280;63470;49.826;6.740;2023-10-19T03:19:33;98146.05;;;13.85;60.83
74722;BME280;63470;49.826;6.740;2023-10-19T03:22:09;98140.36;;;13.86;60.89
74722;BME280;63470;49.826;6.740;2023-10-19T03:24:41;98139.47;;;13.88;60.86
74722;BME280;63470;49.826;6.740;2023-10-19T03:27:27;98133.68;;;13.90;60.85
74722;BME280;63470;49.826;6.740;2023-10-19T03:29:44;98139.57;;;13.93;60.82
74722;BME280;63470;49.826;6.740;2023-10-19T03:32:05;98139.77;;;13.97;60.78
74722;BME280;63470;49.826;6.740;2023-10-19T03:34:35;98130.14;;;13.98;60.74
74722;BME280;63470;49.826;6.740;2023-10-19T03:37:13;98133.21;;;13.99;60.70
74722;BME280;63470;49.826;6.740;2023-10-19T03:39:41;98127.35;;;14.00;60.75
74722;BME280;63470;49.826;6.740;2023-10-19T03:42:11;98127.86;;;13.99;60.77
74722;BME280;63470;49.826;6.740;2023-10-19T03:44:50;98121.23;;;13.99;60.78
74722;BME280;63470;49.826;6.740;2023-10-19T03:47:19;98124.61;;;13.99;60.77
74722;BME280;63470;49.826;6.740;2023-10-19T03:49:42;98122.95;;;13.99;60.76
74722;BME280;63470;49.826;6.740;2023-10-19T03:52:22;98119.75;;;14.01;60.71
74722;BME280;63470;49.826;6.740;2023-10-19T03:54:40;98126.47;;;14.02;60.70
74722;BME280;63470;49.826;6.740;2023-10-19T03:57:17;98126.30;;;14.02;60.78
74722;BME280;63470;49.826;6.740;2023-10-19T03:59:45;98129.94;;;14.05;60.83
74722;BME280;63470;49.826;6.740;2023-10-19T04:02:17;98130.48;;;14.08;60.82
74722;BME280;63470;49.826;6.740;2023-10-19T04:04:54;98123.01;;;14.11;60.82
74722;BME280;63470;49.826;6.740;2023-10-19T04:07:29;98122.50;;;14.16;60.84
74722;BME280;63470;49.826;6.740;2023-10-19T04:10:17;98116.78;;;14.21;60.79
74722;BME280;63470;49.826;6.740;2023-10-19T04:12:13;98119.22;;;14.23;60.78
74722;BME280;63470;49.826;6.740;2023-10-19T04:14:46;98116.98;;;14.27;60.79
74722;BME280;63470;49.826;6.740;2023-10-19T04:17:15;98111.12;;;14.30;60.71
74722;BME280;63470;49.826;6.740;2023-10-19T04:19:44;98112.36;;;14.30;60.69
74722;BME280;63470;49.826;6.740;2023-10-19T04:22:28;98112.03;;;14.31;60.75
74722;BME280;63470;49.826;6.740;2023-10-19T04:24:45;98111.64;;;14.33;60.77
74722;BME280;63470;49.826;6.740;2023-10-19T04:27:16;98113.59;;;14.35;60.78
74722;BME280;63470;49.826;6.740;2023-10-19T04:29:47;98118.39;;;14.35;60.79
74722;BME280;63470;49.826;6.740;2023-10-19T04:32:27;98122.06;;;14.39;60.77
74722;BME280;63470;49.826;6.740;2023-10-19T04:34:53;98115.45;;;14.41;60.75
74722;BME280;63470;49.826;6.740;2023-10-19T04:37:24;98119.31;;;14.41;60.73
74722;BME280;63470;49.826;6.740;2023-10-19T04:39:55;98117.42;;;14.41;60.72
74722;BME280;63470;49.826;6.740;2023-10-19T04:42:23;98111.49;;;14.38;60.75
74722;BME280;63470;49.826;6.740;2023-10-19T04:44:50;98115.29;;;14.37;60.82
74722;BME280;63470;49.826;6.740;2023-10-19T04:47:23;98109.41;;;14.37;60.84
74722;BME280;63470;49.826;6.740;2023-10-19T04:49:56;98105.66;;;14.34;60.87
74722;BME280;63470;49.826;6.740;2023-10-19T04:52:21;98108.66;;;14.27;60.93
74722;BME280;63470;49.826;6.740;2023-10-19T04:54:59;98109.97;;;14.19;61.05
74722;BME280;63470;49.826;6.740;2023-10-19T04:57:25;98104.39;;;14.13;61.17
74722;BME280;63470;49.826;6.740;2023-10-19T04:59:55;98105.26;;;14.11;61.20
74722;BME280;63470;49.826;6.740;2023-10-19T05:02:23;98106.69;;;14.13;61.23
74722;BME280;63470;49.826;6.740;2023-10-19T05:04:54;98108.53;;;14.16;61.19
74722;BME280;63470;49.826;6.740;2023-10-19T05:07:27;98104.66;;;14.16;61.16
74722;BME280;63470;49.826;6.740;2023-10-19T05:09:56;98108.16;;;14.14;61.17
74722;BME280;63470;49.826;6.740;2023-10-19T05:12:34;98109.77;;;14.10;61.20
74722;BME280;63470;49.826;6.740;2023-10-19T05:14:56;98109.43;;;14.10;61.22
74722;BME280;63470;49.826;6.740;2023-10-19T05:17:28;98108.08;;;14.11;61.16
74722;BME280;63470;49.826;6.740;2023-10-19T05:19:59;98105.70;;;14.09;61.17
74722;BME280;63470;49.826;6.740;2023-10-19T05:22:33;98107.83;;;14.08;61.23
74722;BME280;63470;49.826;6.740;2023-10-19T05:24:58;98111.04;;;14.11;61.22
74722;BME280;63470;49.826;6.740;2023-10-19T05:27:29;98110.94;;;14.20;61.13
74722;BME280;63470;49.826;6.740;2023-10-19T05:30:00;98106.47;;;14.31;61.04
74722;BME280;63470;49.826;6.740;2023-10-19T05:32:31;98100.47;;;14.42;60.96
74722;BME280;63470;49.826;6.740;2023-10-19T05:35:06;98101.08;;;14.51;60.89
74722;BME280;63470;49.826;6.740;2023-10-19T05:37:33;98098.87;;;14.56;60.88
74722;BME280;63470;49.826;6.740;2023-10-19T05:40:06;98091.27;;;14.58;60.86
74722;BME280;63470;49.826;6.740;2023-10-19T05:42:37;98093.56;;;14.58;60.88
74722;BME280;63470;49.826;6.740;2023-10-19T05:45:08;98096.50;;;14.55;60.96
74722;BME280;63470;49.826;6.740;2023-10-19T05:47:33;98097.50;;;14.51;61.04
74722;BME280;63470;49.826;6.740;2023-10-19T05:50:10;98093.69;;;14.45;61.09
74722;BME280;63470;49.826;6.740;2023-10-19T05:52:34;98093.98;;;14.39;61.16
74722;BME280;63470;49.826;6.740;2023-10-19T05:55:09;98091.53;;;14.35;61.25
74722;BME280;63470;49.826;6.740;2023-10-19T05:57:41;98091.83;;;14.37;61.28
74722;BME280;63470;49.826;6.740;2023-10-19T06:00:17;98094.45;;;14.41;61.29
74722;BME280;63470;49.826;6.740;2023-10-19T06:02:36;98101.98;;;14.47;61.25
74722;BME280;63470;49.826;6.740;2023-10-19T06:05:10;98105.50;;;14.53;61.20
74722;BME280;63470;49.826;6.740;2023-10-19T06:07:38;98105.27;;;14.55;61.15
74722;BME280;63470;49.826;6.740;2023-10-19T06:10:10;98109.64;;;14.54;61.09
74722;BME280;63470;49.826;6.740;2023-10-19T06:12:48;98110.83;;;14.52;61.12
74722;BME280;63470;49.826;6.740;2023-10-19T06:15:12;98108.31;;;14.51;61.18
74722;BME280;63470;49.826;6.740;2023-10-19T06:17:42;98103.59;;;14.52;61.23
74722;BME280;63470;49.826;6.740;2023-10-19T06:20:13;98101.44;;;14.52;61.22
74722;BME280;63470;49.826;6.740;2023-10-19T06:22:44;98098.59;;;14.48;61.28
74722;BME280;63470;49.826;6.740;2023-10-19T06:25:11;98101.42;;;14.41;61.36
74722;BME280;63470;49.826;6.740;2023-10-19T06:27:41;98099.69;;;14.34;61.46
74722;BME280;63470;49.826;6.740;2023-10-19T06:30:16;98105.50;;;14.29;61.47
74722;BME280;63470;49.826;6.740;2023-10-19T06:32:42;98107.00;;;14.25;61.49
74722;BME280;63470;49.826;6.740;2023-10-19T06:35:13;98112.05;;;14.21;61.50
74722;BME280;63470;49.826;6.740;2023-10-19T06:37:42;98111.28;;;14.22;61.47
74722;BME280;63470;49.826;6.740;2023-10-19T06:40:15;98118.66;;;14.22;61.47
74722;BME280;63470;49.826;6.740;2023-10-19T06:42:45;98124.03;;;14.26;61.40
74722;BME280;63470;49.826;6.740;2023-10-19T06:45:17;98124.91;;;14.30;61.33
74722;BME280;63470;49.826;6.740;2023-10-19T06:47:49;98125.38;;;14.35;61.30
74722;BME280;63470;49.826;6.740;2023-10-19T06:50:19;98123.31;;;14.38;61.28
74722;BME280;63470;49.826;6.740;2023-10-19T06:52:49;98125.73;;;14.40;61.27
74722;BME280;63470;49.826;6.740;2023-10-19T06:55:22;98127.11;;;14.43;61.32
74722;BME280;63470;49.826;6.740;2023-10-19T06:57:50;98134.27;;;14.50;61.25
74722;BME280;63470;49.826;6.740;2023-10-19T07:00:24;98127.53;;;14.59;61.23
74722;BME280;63470;49.826;6.740;2023-10-19T07:02:50;98125.38;;;14.69;61.16
74722;BME280;63470;49.826;6.740;2023-10-19T07:05:27;98119.59;;;14.80;61.07
74722;BME280;63470;49.826;6.740;2023-10-19T07:07:48;98112.98;;;14.91;61.01
74722;BME280;63470;49.826;6.740;2023-10-19T07:10:18;98117.75;;;14.99;60.89
74722;BME280;63470;49.826;6.740;2023-10-19T07:12:53;98123.95;;;15.07;60.78
74722;BME280;63470;49.826;6.740;2023-10-19T07:15:23;98130.92;;;15.54;60.33
74722;BME280;63470;49.826;6.740;2023-10-19T07:17:50;98126.58;;;15.93;60.24
74722;BME280;63470;49.826;6.740;2023-10-19T07:20:28;98126.16;;;16.08;60.24
74722;BME280;63470;49.826;6.740;2023-10-19T07:22:59;98122.92;;;15.97;60.43
74722;BME280;63470;49.826;6.740;2023-10-19T07:25:22;98127.84;;;15.87;60.58
74722;BME280;63470;49.826;6.740;2023-10-19T07:27:55;98125.91;;;15.78;60.78
74722;BME280;63470;49.826;6.740;2023-10-19T07:30:32;98124.57;;;15.77;60.75
74722;BME280;63470;49.826;6.740;2023-10-19T07:33:04;98125.37;;;15.80;60.80
74722;BME280;63470;49.826;6.740;2023-10-19T07:35:34;98122.66;;;15.98;61.05
74722;BME280;63470;49.826;6.740;2023-10-19T07:37:55;98128.54;;;16.19;61.10
74722;BME280;63470;49.826;6.740;2023-10-19T07:40:25;98119.84;;;16.39;60.98
74722;BME280;63470;49.826;6.740;2023-10-19T07:42:56;98111.08;;;16.55;60.75
74722;BME280;63470;49.826;6.740;2023-10-19T07:45:26;98099.77;;;16.62;60.66
74722;BME280;63470;49.826;6.740;2023-10-19T07:47:58;98095.28;;;16.59;60.69
74722;BME280;63470;49.826;6.740;2023-10-19T07:50:35;98096.36;;;16.55;60.78
74722;BME280;63470;49.826;6.740;2023-10-19T07:53:01;98099.27;;;16.50;60.84
74722;BME280;63470;49.826;6.740;2023-10-19T07:55:30;98090.52;;;16.46;60.94
74722;BME280;63470;49.826;6.740;2023-10-19T07:58:09;98081.33;;;16.45;60.97
74722;BME280;63470;49.826;6.740;2023-10-19T08:00:34;98083.12;;;16.45;60.91
74722;BME280;63470;49.826;6.740;2023-10-19T08:03:05;98086.36;;;16.42;60.91
74722;BME280;63470;49.826;6.740;2023-10-19T08:05:35;98085.77;;;16.52;60.93
74722;BME280;63470;49.826;6.740;2023-10-19T08:08:02;98081.30;;;16.78;60.65
74722;BME280;63470;49.826;6.740;2023-10-19T08:10:32;98078.59;;;17.17;60.19
74722;BME280;63470;49.826;6.740;2023-10-19T08:13:03;98070.45;;;17.47;60.02
74722;BME280;63470;49.826;6.740;2023-10-19T08:15:35;98076.95;;;17.66;59.83
74722;BME280;63470;49.826;6.740;2023-10-19T08:18:10;98066.22;;;17.71;59.79
74722;BME280;63470;49.826;6.740;2023-10-19T08:20:40;98066.85;;;17.71;59.90
74722;BME280;63470;49.826;6.740;2023-10-19T08:23:09;98066.26;;;17.75;59.95
74722;BME280;63470;49.826;6.740;2023-10-19T08:25:36;98063.73;;;17.79;60.04
74722;BME280;63470;49.826;6.740;2023-10-19T08:28:10;98058.71;;;17.87;60.01
74722;BME280;63470;49.826;6.740;2023-10-19T08:30:38;98055.20;;;17.87;60.08
74722;BME280;63470;49.826;6.740;2023-10-19T08:33:12;98055.50;;;17.87;60.29
74722;BME280;63470;49.826;6.740;2023-10-19T08:35:41;98053.75;;;17.95;60.31
74722;BME280;63470;49.826;6.740;2023-10-19T08:38:17;98061.98;;;18.03;60.35
74722;BME280;63470;49.826;6.740;2023-10-19T08:40:40;98057.52;;;18.15;60.15
74722;BME280;63470;49.826;6.740;2023-10-19T08:43:16;98051.07;;;18.19;60.13
74722;BME280;63470;49.826;6.740;2023-10-19T08:45:41;98039.02;;;18.21;60.14
74722;BME280;63470;49.826;6.740;2023-10-19T08:48:10;98025.33;;;18.27;60.12
74722;BME280;63470;49.826;6.740;2023-10-19T08:50:44;98026.45;;;18.39;60.08
74722;BME280;63470;49.826;6.740;2023-10-19T08:53:18;98033.98;;;18.50;59.97
74722;BME280;63470;49.826;6.740;2023-10-19T08:55:41;98035.41;;;18.62;59.92
74722;BME280;63470;49.826;6.740;2023-10-19T08:58:13;98036.39;;;18.76;59.85
74722;BME280;63470;49.826;6.740;2023-10-19T09:00:47;98027.48;;;18.84;59.78
74722;BME280;63470;49.826;6.740;2023-10-19T09:03:15;98024.73;;;18.89;59.87
74722;BME280;63470;49.826;6.740;2023-10-19T09:05:43;98031.08;;;18.89;59.98
74722;BME280;63470;49.826;6.740;2023-10-19T09:08:16;98030.70;;;18.94;59.88
74722;BME280;63470;49.826;6.740;2023-10-19T09:10:49;98030.46;;;18.95;59.88
74722;BME280;63470;49.826;6.740;2023-10-19T09:13:21;98026.89;;;18.93;59.85
74722;BME280;63470;49.826;6.740;2023-10-19T09:15:48;98020.12;;;18.87;59.92
74722;BME280;63470;49.826;6.740;2023-10-19T09:18:17;98017.77;;;18.78;60.12
74722;BME280;63470;49.826;6.740;2023-10-19T09:20:54;98019.15;;;18.75;60.23
74722;BME280;63470;49.826;6.740;2023-10-19T09:23:24;98007.39;;;18.73;60.23
74722;BME280;63470;49.826;6.740;2023-10-19T09:25:50;98006.53;;;18.67;60.31
74722;BME280;63470;49.826;6.740;2023-10-19T09:28:19;98006.30;;;18.65;60.38
74722;BME280;63470;49.826;6.740;2023-10-19T09:30:50;98001.39;;;18.63;60.35
74722;BME280;63470;49.826;6.740;2023-10-19T09:33:22;97996.12;;;18.55;60.40
74722;BME280;63470;49.826;6.740;2023-10-19T09:36:00;97997.58;;;18.48;60.53
74722;BME280;63470;49.826;6.740;2023-10-19T09:38:31;98001.25;;;18.53;60.54
74722;BME280;63470;49.826;6.740;2023-10-19T09:40:53;98006.00;;;18.62;60.54
74722;BME280;63470;49.826;6.740;2023-10-19T09:43:38;98012.78;;;18.80;60.35
74722;BME280;63470;49.826;6.740;2023-10-19T09:45:56;98020.86;;;19.17;59.95
74722;BME280;63470;49.826;6.740;2023-10-19T09:48:25;98008.62;;;19.42;59.66
74722;BME280;63470;49.826;6.740;2023-10-19T09:51:03;98000.77;;;19.49;59.67
74722;BME280;63470;49.826;6.740;2023-10-19T09:53:27;98003.81;;;19.66;59.60
74722;BME280;63470;49.826;6.740;2023-10-19T09:55:58;97997.36;;;19.94;59.33
74722;BME280;63470;49.826;6.740;2023-10-19T09:58:31;97994.70;;;20.05;59.26
74722;BME280;63470;49.826;6.740;2023-10-19T10:01:03;97997.59;;;20.07;59.30
74722;BME280;63470;49.826;6.740;2023-10-19T10:03:50;97991.27;;;19.98;59.57
74722;BME280;63470;49.826;6.740;2023-10-19T10:05:59;97994.50;;;19.96;59.78
74722;BME280;63470;49.826;6.740;2023-10-19T10:08:30;97999.73;;;19.99;59.84
74722;BME280;63470;49.826;6.740;2023-10-19T10:11:23;97995.61;;;20.00;59.89
74722;BME280;63470;49.826;6.740;2023-10-19T10:13:36;97991.49;;;20.03;59.90
74722;BME280;63470;49.826;6.740;2023-10-19T10:16:06;97985.27;;;20.15;59.74
74722;BME280;63470;49.826;6.740;2023-10-19T10:18:33;97987.59;;;20.21;59.70
74722;BME280;63470;49.826;6.740;2023-10-19T10:21:22;98001.45;;;20.29;59.70
74722;BME280;63470;49.826;6.740;2023-10-19T10:23:47;98009.58;;;20.40;59.58
74722;BME280;63470;49.826;6.740;2023-10-19T10:26:06;98017.79;;;20.43;59.63
74722;BME280;63470;49.826;6.740;2023-10-19T10:28:36;98021.73;;;20.45;59.70
74722;BME280;63470;49.826;6.740;2023-10-19T10:31:11;98024.94;;;20.45;59.70
74722;BME280;63470;49.826;6.740;2023-10-19T10:33:39;98028.99;;;20.38;59.82
74722;BME280;63470;49.826;6.740;2023-10-19T10:36:06;98027.77;;;20.33;60.02
74722;BME280;63470;49.826;6.740;2023-10-19T10:38:36;98022.56;;;20.30;60.09
74722;BME280;63470;49.826;6.740;2023-10-19T10:41:09;98008.75;;;20.23;60.18
74722;BME280;63470;49.826;6.740;2023-10-19T10:43:56;98004.48;;;20.17;60.32
74722;BME280;63470;49.826;6.740;2023-10-19T10:46:10;97999.53;;;20.15;60.36
74722;BME280;63470;49.826;6.740;2023-10-19T10:48:41;98003.28;;;20.13;60.33
74722;BME280;63470;49.826;6.740;2023-10-19T10:51:19;98008.43;;;20.05;60.39
74722;BME280;63470;49.826;6.740;2023-10-19T10:53:41;98001.34;;;19.90;60.42
74722;BME280;63470;49.826;6.740;2023-10-19T10:56:08;97996.53;;;19.69;60.55
74722;BME280;63470;49.826;6.740;2023-10-19T10:58:39;97995.24;;;19.49;60.83
74722;BME280;63470;49.826;6.740;2023-10-19T11:01:11;97993.53;;;19.32;61.09
74722;BME280;63470;49.826;6.740;2023-10-19T11:03:44;97986.07;;;19.17;61.26
74722;BME280;63470;49.826;6.740;2023-10-19T11:06:14;97985.33;;;19.05;61.43
74722;BME280;63470;49.826;6.740;2023-10-19T11:08:40;97983.25;;;18.96;61.54
74722;BME280;63470;49.826;6.740;2023-10-19T11:11:19;97984.76;;;18.94;61.57
74722;BME280;63470;49.826;6.740;2023-10-19T11:13:42;97981.58;;;18.95;61.54
74722;BME280;63470;49.826;6.740;2023-10-19T11:16:21;97985.15;;;18.97;61.47
74722;BME280;63470;49.826;6.740;2023-10-19T11:18:51;97985.38;;;19.00;61.40
74722;BME280;63470;49.826;6.740;2023-10-19T11:21:13;97978.04;;;19.03;61.34
74722;BME280;63470;49.826;6.740;2023-10-19T11:23:51;97976.12;;;19.07;61.29
74722;BME280;63470;49.826;6.740;2023-10-19T11:26:17;97974.50;;;19.09;61.22
74722;BME280;63470;49.826;6.740;2023-10-19T11:29:01;97972.00;;;19.09;61.15
74722;BME280;63470;49.826;6.740;2023-10-19T11:31:21;97971.33;;;19.09;61.18
74722;BME280;63470;49.826;6.740;2023-10-19T11:33:46;97973.73;;;19.09;61.23
74722;BME280;63470;49.826;6.740;2023-10-19T11:36:17;97973.23;;;19.09;61.24
74722;BME280;63470;49.826;6.740;2023-10-19T11:38:48;97972.80;;;19.10;61.25
74722;BME280;63470;49.826;6.740;2023-10-19T11:41:20;97972.32;;;19.10;61.20
74722;BME280;63470;49.826;6.740;2023-10-19T11:43:53;97969.72;;;19.09;61.22
74722;BME280;63470;49.826;6.740;2023-10-19T11:46:19;97973.88;;;19.08;61.19
74722;BME280;63470;49.826;6.740;2023-10-19T11:48:49;97972.52;;;19.04;61.25
74722;BME280;63470;49.826;6.740;2023-10-19T11:51:22;97970.28;;;19.03;61.26
74722;BME280;63470;49.826;6.740;2023-10-19T11:53:51;97965.47;;;19.02;61.25
74722;BME280;63470;49.826;6.740;2023-10-19T11:56:22;97956.95;;;19.02;61.27
74722;BME280;63470;49.826;6.740;2023-10-19T11:58:52;97951.10;;;19.00;61.24
74722;BME280;63470;49.826;6.740;2023-10-19T12:01:22;97941.05;;;18.96;61.32
74722;BME280;63470;49.826;6.740;2023-10-19T12:03:55;97934.03;;;18.96;61.32
74722;BME280;63470;49.826;6.740;2023-10-19T12:06:25;97937.00;;;18.99;61.31
74722;BME280;63470;49.826;6.740;2023-10-19T12:09:00;97930.98;;;18.99;61.26
74722;BME280;63470;49.826;6.740;2023-10-19T12:11:25;97930.26;;;18.95;61.25
74722;BME280;63470;49.826;6.740;2023-10-19T12:13:55;97929.45;;;18.88;61.27
74722;BME280;63470;49.826;6.740;2023-10-19T12:16:25;97930.19;;;18.80;61.37
74722;BME280;63470;49.826;6.740;2023-10-19T12:18:58;97930.05;;;18.74;61.43
74722;BME280;63470;49.826;6.740;2023-10-19T12:21:32;97926.30;;;18.64;61.55
74722;BME280;63470;49.826;6.740;2023-10-19T12:24:00;97921.72;;;18.54;61.74
74722;BME280;63470;49.826;6.740;2023-10-19T12:26:30;97926.16;;;18.45;61.87
74722;BME280;63470;49.826;6.740;2023-10-19T12:29:03;97932.44;;;18.34;61.98
74722;BME280;63470;49.826;6.740;2023-10-19T12:31:33;97921.44;;;18.19;62.02
74722;BME280;63470;49.826;6.740;2023-10-19T12:34:00;97916.28;;;18.04;62.12
74722;BME280;63470;49.826;6.740;2023-10-19T12:36:35;97911.02;;;17.95;62.17
74722;BME280;63470;49.826;6.740;2023-10-19T12:39:05;97910.83;;;17.90;62.21
74722;BME280;63470;49.826;6.740;2023-10-19T12:41:33;97902.98;;;17.85;62.22
74722;BME280;63470;49.826;6.740;2023-10-19T12:44:15;97896.41;;;17.81;62.31
74722;BME280;63470;49.826;6.740;2023-10-19T12:46:37;97885.06;;;17.75;62.31
74722;BME280;63470;49.826;6.740;2023-10-19T12:49:13;97875.53;;;17.66;62.38
74722;BME280;63470;49.826;6.740;2023-10-19T12:51:34;97854.00;;;17.61;62.33
74722;BME280;63470;49.826;6.740;2023-10-19T12:54:08;97833.03;;;17.55;62.25
74722;BME280;63470;49.826;6.740;2023-10-19T12:56:41;97835.53;;;17.51;62.23
74722;BME280;63470;49.826;6.740;2023-10-19T12:59:07;97847.38;;;17.53;62.26
74722;BME280;63470;49.826;6.740;2023-10-19T13:01:37;97852.11;;;17.61;62.20
74722;BME280;63470;49.826;6.740;2023-10-19T13:04:24;97845.63;;;17.67;62.16
74722;BME280;63470;49.826;6.740;2023-10-19T13:06:44;97845.90;;;17.68;62.20
74722;BME280;63470;49.826;6.740;2023-10-19T13:09:12;97844.53;;;17.72;62.19
74722;BME280;63470;49.826;6.740;2023-10-19T13:11:47;97847.36;;;17.71;62.25
74722;BME280;63470;49.826;6.740;2023-10-19T13:14:10;97848.12;;;17.71;62.20
74722;BME280;63470;49.826;6.740;2023-10-19T13:16:42;97848.27;;;17.69;62.19